createdAt,value
2019-03-13T00:00:57.423Z,0.10
2019-03-13T00:02:11.683Z,0.10
2019-03-13T00:03:15.848Z,0.10
2019-03-13T00:04:20.216Z,0.10
2019-03-13T00:05:24.379Z,0.10
2019-03-13T00:06:28.498Z,0.10
2019-03-13T00:07:32.728Z,0.10
2019-03-13T00:08:36.849Z,0.10
2019-03-13T00:09:41.046Z,0.10
2019-03-13T00:10:45.165Z,0.10
2019-03-13T00:11:49.351Z,0.10
2019-03-13T00:12:53.536Z,0.10
2019-03-13T00:13:57.618Z,0.10
2019-03-13T00:15:01.828Z,0.10
2019-03-13T00:16:06.060Z,0.10
2019-03-13T00:17:10.213Z,0.10
2019-03-13T00:18:14.495Z,0.10
2019-03-13T00:19:18.711Z,0.10
2019-03-13T00:20:22.875Z,0.10
2019-03-13T00:21:26.970Z,0.10
2019-03-13T00:22:31.079Z,0.10
2019-03-13T00:23:35.171Z,0.10
2019-03-13T00:24:39.348Z,0.10
2019-03-13T00:25:43.582Z,0.10
2019-03-13T00:26:47.820Z,0.10
2019-03-13T00:27:51.930Z,0.10
2019-03-13T00:28:56.395Z,0.10
2019-03-13T00:30:00.556Z,0.10
2019-03-13T00:31:04.695Z,0.10
2019-03-13T00:32:11.468Z,0.10
2019-03-13T00:33:15.627Z,0.10
2019-03-13T00:34:19.751Z,0.10
2019-03-13T00:35:23.959Z,0.10
2019-03-13T00:36:28.081Z,0.10
2019-03-13T00:37:32.183Z,0.10
2019-03-13T00:38:36.378Z,0.10
2019-03-13T00:39:40.510Z,0.20
2019-03-13T00:40:44.624Z,0.10
2019-03-13T00:41:48.772Z,0.10
2019-03-13T00:42:52.907Z,0.10
2019-03-13T00:43:57.115Z,0.15
2019-03-13T00:45:01.258Z,0.10
2019-03-13T00:46:05.371Z,0.20
2019-03-13T00:47:09.748Z,0.10
2019-03-13T00:48:13.835Z,0.10
2019-03-13T00:49:18.011Z,0.10
2019-03-13T00:50:24.290Z,0.10
2019-03-13T00:51:28.487Z,0.10
2019-03-13T00:52:32.572Z,0.10
2019-03-13T00:53:36.714Z,0.10
2019-03-13T00:54:40.816Z,0.10
2019-03-13T00:55:44.928Z,0.10
2019-03-13T00:56:49.051Z,0.10
2019-03-13T00:57:53.211Z,0.10
2019-03-13T00:58:57.295Z,4.72
2019-03-13T01:00:01.404Z,2.50
2019-03-13T01:01:39.431Z,2.45
2019-03-13T01:02:44.992Z,1.90
2019-03-13T01:04:08.011Z,3.00
2019-03-13T01:05:21.824Z,1.50
2019-03-13T01:06:28.717Z,2.05
2019-03-13T01:07:32.859Z,5.12
2019-03-13T01:08:37.008Z,4.30
2019-03-13T01:09:41.120Z,4.40
2019-03-13T01:10:45.200Z,3.02
2019-03-13T01:11:49.327Z,2.83
2019-03-13T01:12:53.499Z,2.15
2019-03-13T01:13:57.653Z,3.00
2019-03-13T01:15:01.770Z,3.83
2019-03-13T01:16:05.900Z,2.75
2019-03-13T01:17:09.989Z,8.80
2019-03-13T01:18:14.180Z,25.75
2019-03-13T01:19:18.336Z,3.30
2019-03-13T01:20:22.411Z,3.05
2019-03-13T01:21:26.506Z,3.62
2019-03-13T01:22:30.619Z,3.15
2019-03-13T01:23:34.739Z,3.45
2019-03-13T01:24:38.824Z,2.02
2019-03-13T01:25:42.960Z,4.17
2019-03-13T01:26:47.086Z,1.50
2019-03-13T01:27:51.282Z,2.80
2019-03-13T01:28:55.476Z,4.20
2019-03-13T01:29:59.609Z,3.10
2019-03-13T01:31:11.386Z,7.22
2019-03-13T01:32:40.402Z,1.52
2019-03-13T01:33:44.520Z,3.17
2019-03-13T01:34:56.179Z,3.50
2019-03-13T01:36:02.566Z,4.00
2019-03-13T01:37:06.718Z,5.62
2019-03-13T01:38:10.835Z,4.42
2019-03-13T01:39:14.910Z,1.67
2019-03-13T01:40:19.015Z,5.75
2019-03-13T01:41:23.139Z,2.20
2019-03-13T01:42:27.234Z,3.60
2019-03-13T01:43:31.339Z,5.55
2019-03-13T01:44:35.507Z,4.83
2019-03-13T01:45:39.715Z,4.65
2019-03-13T01:46:43.788Z,4.58
2019-03-13T01:47:47.923Z,3.87
2019-03-13T01:48:52.035Z,5.35
2019-03-13T01:49:56.122Z,3.33
2019-03-13T01:51:00.216Z,6.20
2019-03-13T01:52:04.355Z,6.28
2019-03-13T01:53:08.448Z,3.35
2019-03-13T01:54:12.848Z,5.80
2019-03-13T01:55:17.004Z,6.62
2019-03-13T01:56:21.099Z,2.55
2019-03-13T01:57:25.210Z,7.40
2019-03-13T01:58:29.340Z,4.42
2019-03-13T01:59:33.489Z,4.75
2019-03-13T02:00:37.684Z,2.45
2019-03-13T02:01:41.768Z,1.57
2019-03-13T02:02:45.859Z,4.65
2019-03-13T02:03:49.977Z,4.55
2019-03-13T02:04:54.096Z,5.37
2019-03-13T02:05:58.167Z,3.60
2019-03-13T02:07:02.250Z,3.72
2019-03-13T02:08:06.343Z,2.00
2019-03-13T02:09:10.423Z,2.72
2019-03-13T02:10:14.518Z,4.53
2019-03-13T02:11:18.631Z,1.92
2019-03-13T02:12:22.693Z,4.30
2019-03-13T02:13:26.786Z,5.12
2019-03-13T02:14:30.977Z,4.15
2019-03-13T02:15:35.050Z,3.83
2019-03-13T02:16:39.207Z,4.17
2019-03-13T02:17:43.350Z,4.25
2019-03-13T02:18:47.488Z,3.77
2019-03-13T02:19:51.677Z,6.08
2019-03-13T02:20:55.857Z,6.33
2019-03-13T02:21:59.926Z,3.08
2019-03-13T02:23:04.019Z,3.27
2019-03-13T02:24:08.426Z,4.33
2019-03-13T02:25:12.607Z,2.02
2019-03-13T02:26:16.679Z,4.70
2019-03-13T02:27:20.755Z,6.80
2019-03-13T02:28:24.839Z,4.28
2019-03-13T02:29:28.922Z,5.10
2019-03-13T02:30:33.012Z,7.10
2019-03-13T02:31:37.095Z,1.15
2019-03-13T02:32:41.281Z,2.80
2019-03-13T02:33:45.366Z,4.42
2019-03-13T02:34:49.468Z,3.95
2019-03-13T02:35:53.582Z,4.53
2019-03-13T02:36:57.715Z,10.30
2019-03-13T02:38:01.905Z,7.17
2019-03-13T02:39:06.273Z,6.03
2019-03-13T02:40:10.886Z,4.22
2019-03-13T02:41:15.039Z,4.37
2019-03-13T02:42:19.115Z,3.90
2019-03-13T02:43:23.201Z,2.72
2019-03-13T02:44:27.621Z,6.00
2019-03-13T02:45:31.730Z,5.05
2019-03-13T02:46:35.849Z,3.77
2019-03-13T02:47:39.938Z,4.65
2019-03-13T02:48:44.059Z,2.98
2019-03-13T02:49:48.203Z,8.35
2019-03-13T02:50:52.263Z,5.75
2019-03-13T02:51:56.367Z,7.42
2019-03-13T02:53:00.498Z,6.35
2019-03-13T02:54:04.606Z,6.22
2019-03-13T02:55:08.985Z,5.30
2019-03-13T02:56:13.088Z,4.95
2019-03-13T02:57:17.174Z,10.08
2019-03-13T02:58:21.352Z,5.92
2019-03-13T02:59:25.579Z,6.70
2019-03-13T03:00:47.264Z,6.78
2019-03-13T03:02:09.031Z,2.95
2019-03-13T03:03:22.397Z,3.02
2019-03-13T03:04:26.709Z,7.25
2019-03-13T03:05:30.845Z,4.05
2019-03-13T03:06:34.908Z,5.42
2019-03-13T03:07:39.022Z,5.20
2019-03-13T03:08:43.132Z,4.17
2019-03-13T03:09:47.339Z,3.62
2019-03-13T03:10:51.411Z,3.40
2019-03-13T03:11:55.547Z,8.45
2019-03-13T03:12:59.724Z,2.42
2019-03-13T03:14:03.829Z,4.05
2019-03-13T03:15:18.070Z,6.45
2019-03-13T03:16:22.162Z,3.87
2019-03-13T03:17:26.346Z,2.37
2019-03-13T03:18:30.528Z,3.05
2019-03-13T03:19:34.681Z,5.22
2019-03-13T03:20:38.799Z,6.37
2019-03-13T03:21:42.925Z,7.67
2019-03-13T03:22:47.035Z,5.50
2019-03-13T03:23:51.262Z,3.72
2019-03-13T03:24:55.434Z,5.78
2019-03-13T03:25:59.708Z,3.20
2019-03-13T03:27:03.784Z,3.02
2019-03-13T03:28:07.887Z,8.50
2019-03-13T03:29:11.993Z,2.15
2019-03-13T03:30:20.914Z,6.40
2019-03-13T03:31:25.056Z,8.75
2019-03-13T03:32:29.188Z,3.35
2019-03-13T03:33:33.333Z,7.45
2019-03-13T03:34:37.766Z,3.77
2019-03-13T03:35:41.920Z,3.20
2019-03-13T03:36:46.000Z,4.50
2019-03-13T03:37:50.172Z,5.80
2019-03-13T03:38:54.312Z,6.20
2019-03-13T03:39:58.380Z,5.20
2019-03-13T03:41:02.494Z,4.97
2019-03-13T03:42:06.581Z,6.33
2019-03-13T03:43:10.787Z,6.12
2019-03-13T03:44:14.856Z,8.13
2019-03-13T03:45:18.930Z,7.35
2019-03-13T03:46:23.021Z,4.65
2019-03-13T03:47:27.096Z,7.08
2019-03-13T03:48:31.185Z,4.65
2019-03-13T03:49:35.283Z,4.28
2019-03-13T03:50:39.505Z,5.78
2019-03-13T03:51:43.592Z,7.65
2019-03-13T03:52:47.693Z,6.95
2019-03-13T03:53:51.853Z,5.20
2019-03-13T03:54:55.984Z,3.72
2019-03-13T03:56:00.105Z,7.97
2019-03-13T03:57:04.188Z,2.02
2019-03-13T03:58:08.266Z,6.83
2019-03-13T03:59:12.492Z,2.72
2019-03-13T04:00:16.777Z,9.93
2019-03-13T04:01:20.895Z,4.03
2019-03-13T04:02:24.970Z,4.15
2019-03-13T04:03:29.107Z,5.85
2019-03-13T04:04:33.268Z,3.98
2019-03-13T04:05:37.329Z,4.55
2019-03-13T04:06:41.430Z,5.90
2019-03-13T04:07:45.567Z,6.45
2019-03-13T04:08:49.757Z,7.00
2019-03-13T04:09:53.872Z,4.20
2019-03-13T04:10:58.082Z,3.30
2019-03-13T04:12:02.159Z,6.72
2019-03-13T04:13:06.305Z,5.53
2019-03-13T04:14:10.402Z,5.83
2019-03-13T04:15:14.550Z,4.03
2019-03-13T04:16:18.695Z,7.22
2019-03-13T04:17:22.796Z,6.83
2019-03-13T04:18:26.887Z,7.33
2019-03-13T04:19:31.044Z,5.25
2019-03-13T04:20:35.223Z,5.35
2019-03-13T04:21:39.331Z,8.83
2019-03-13T04:22:43.429Z,5.25
2019-03-13T04:23:47.575Z,4.00
2019-03-13T04:24:51.836Z,8.98
2019-03-13T04:25:56.064Z,5.97
2019-03-13T04:27:00.121Z,5.75
2019-03-13T04:28:04.428Z,7.03
2019-03-13T04:29:08.538Z,6.42
2019-03-13T04:30:12.612Z,6.72
2019-03-13T04:31:16.724Z,4.97
2019-03-13T04:32:20.912Z,7.15
2019-03-13T04:33:28.074Z,7.58
2019-03-13T04:34:30.873Z,4.10
2019-03-13T04:35:35.017Z,3.72
2019-03-13T04:36:39.164Z,8.95
2019-03-13T04:37:43.421Z,5.90
2019-03-13T04:38:47.535Z,5.78
2019-03-13T04:39:51.657Z,6.53
2019-03-13T04:40:55.767Z,7.08
2019-03-13T04:42:00.258Z,10.23
2019-03-13T04:43:04.394Z,8.43
2019-03-13T04:44:08.475Z,8.55
2019-03-13T04:45:12.606Z,12.10
2019-03-13T04:46:16.773Z,12.43
2019-03-13T04:47:20.899Z,8.43
2019-03-13T04:48:24.987Z,8.93
2019-03-13T04:49:29.081Z,4.97
2019-03-13T04:50:33.187Z,7.53
2019-03-13T04:51:37.277Z,5.22
2019-03-13T04:52:41.374Z,3.67
2019-03-13T04:53:45.508Z,4.67
2019-03-13T04:54:49.585Z,11.35
2019-03-13T04:55:53.656Z,5.75
2019-03-13T04:56:58.074Z,8.33
2019-03-13T04:58:02.199Z,6.03
2019-03-13T04:59:06.298Z,7.15
2019-03-13T05:00:11.527Z,3.65
2019-03-13T05:01:15.996Z,8.50
2019-03-13T05:02:20.149Z,6.55
2019-03-13T05:03:24.244Z,5.72
2019-03-13T05:04:28.337Z,5.80
2019-03-13T05:05:55.927Z,8.33
2019-03-13T05:07:00.019Z,4.22
2019-03-13T05:08:04.117Z,7.90
2019-03-13T05:09:09.942Z,8.38
2019-03-13T05:10:14.058Z,4.80
2019-03-13T05:11:18.160Z,9.33
2019-03-13T05:12:22.254Z,7.03
2019-03-13T05:13:26.443Z,5.80
2019-03-13T05:14:32.690Z,7.12
2019-03-13T05:15:36.351Z,7.25
2019-03-13T05:16:40.442Z,9.20
2019-03-13T05:17:44.643Z,6.22
2019-03-13T05:18:48.742Z,7.22
2019-03-13T05:19:52.914Z,10.25
2019-03-13T05:20:57.101Z,12.07
2019-03-13T05:22:01.192Z,5.50
2019-03-13T05:23:05.468Z,4.03
2019-03-13T05:24:09.619Z,7.33
2019-03-13T05:25:13.754Z,5.75
2019-03-13T05:26:17.884Z,5.50
2019-03-13T05:27:22.066Z,12.82
2019-03-13T05:28:26.474Z,5.28
2019-03-13T05:29:30.592Z,8.28
2019-03-13T05:30:34.783Z,9.78
2019-03-13T05:31:38.855Z,7.90
2019-03-13T05:32:42.936Z,8.23
2019-03-13T05:33:47.037Z,4.92
2019-03-13T05:34:51.472Z,7.90
2019-03-13T05:35:55.593Z,5.20
2019-03-13T05:36:59.770Z,9.88
2019-03-13T05:38:03.907Z,8.38
2019-03-13T05:39:08.256Z,9.18
2019-03-13T05:40:12.383Z,5.58
2019-03-13T05:41:16.458Z,7.60
2019-03-13T05:42:20.543Z,8.73
2019-03-13T05:43:24.682Z,7.10
2019-03-13T05:44:28.765Z,6.97
2019-03-13T05:45:32.843Z,2.65
2019-03-13T05:46:36.975Z,4.53
2019-03-13T05:47:41.083Z,10.05
2019-03-13T05:48:45.455Z,7.87
2019-03-13T05:49:49.604Z,6.25
2019-03-13T05:50:53.748Z,7.90
2019-03-13T05:51:57.868Z,4.58
2019-03-13T05:53:01.955Z,5.35
2019-03-13T05:54:06.313Z,6.75
2019-03-13T05:55:10.432Z,4.90
2019-03-13T05:56:14.856Z,7.20
2019-03-13T05:57:19.029Z,8.23
2019-03-13T05:58:23.188Z,10.03
2019-03-13T05:59:27.310Z,6.72
2019-03-13T06:00:31.462Z,8.95
2019-03-13T06:01:35.657Z,8.93
2019-03-13T06:02:39.785Z,9.28
2019-03-13T06:03:44.056Z,13.75
2019-03-13T06:04:48.206Z,8.48
2019-03-13T06:05:52.398Z,5.22
2019-03-13T06:06:56.535Z,4.08
2019-03-13T06:08:00.640Z,10.13
2019-03-13T06:09:05.610Z,6.78
2019-03-13T06:10:09.832Z,7.25
2019-03-13T06:11:13.943Z,11.35
2019-03-13T06:12:18.084Z,7.60
2019-03-13T06:13:22.155Z,9.03
2019-03-13T06:14:26.235Z,7.87
2019-03-13T06:15:30.347Z,9.38
2019-03-13T06:16:35.579Z,7.03
2019-03-13T06:17:39.713Z,10.10
2019-03-13T06:18:43.884Z,6.53
2019-03-13T06:19:48.026Z,13.08
2019-03-13T06:20:52.147Z,10.63
2019-03-13T06:21:56.347Z,10.15
2019-03-13T06:23:00.547Z,8.65
2019-03-13T06:24:04.687Z,6.05
2019-03-13T06:25:09.617Z,6.75
2019-03-13T06:26:13.859Z,11.53
2019-03-13T06:27:17.964Z,9.53
2019-03-13T06:28:22.065Z,10.40
2019-03-13T06:29:26.145Z,6.17
2019-03-13T06:30:30.243Z,10.30
2019-03-13T06:31:34.431Z,7.97
2019-03-13T06:32:38.567Z,9.03
2019-03-13T06:33:42.802Z,11.20
2019-03-13T06:34:46.911Z,7.83
2019-03-13T06:35:51.015Z,8.18
2019-03-13T06:36:55.146Z,9.58
2019-03-13T06:37:59.265Z,8.43
2019-03-13T06:39:04.642Z,15.13
2019-03-13T06:40:10.092Z,8.55
2019-03-13T06:41:14.302Z,10.30
2019-03-13T06:42:18.424Z,6.70
2019-03-13T06:43:22.524Z,5.55
2019-03-13T06:44:27.054Z,8.13
2019-03-13T06:45:31.479Z,4.45
2019-03-13T06:46:35.623Z,11.60
2019-03-13T06:47:39.719Z,6.42
2019-03-13T06:48:43.892Z,6.87
2019-03-13T06:49:48.026Z,6.05
2019-03-13T06:50:52.155Z,4.42
2019-03-13T06:51:56.299Z,13.78
2019-03-13T06:53:00.375Z,6.33
2019-03-13T06:54:04.470Z,6.35
2019-03-13T06:55:08.711Z,18.00
2019-03-13T06:56:12.838Z,9.05
2019-03-13T06:57:17.108Z,9.53
2019-03-13T06:58:31.031Z,10.75
2019-03-13T06:59:54.144Z,5.83
2019-03-13T07:01:05.863Z,8.38
2019-03-13T07:02:28.941Z,6.40
2019-03-13T09:01:32.456Z,4.67
2019-03-13T09:03:13.738Z,5.45
2019-03-13T09:04:34.020Z,3.58
2019-03-13T09:05:59.860Z,7.62
2019-03-13T09:07:18.654Z,3.95
2019-03-13T09:08:38.862Z,5.10
2019-03-13T09:10:04.707Z,4.28
2019-03-13T09:11:26.258Z,5.25
2019-03-13T09:12:49.272Z,5.58
2019-03-13T09:14:27.465Z,5.30
2019-03-13T09:16:02.843Z,4.87
2019-03-13T09:17:27.934Z,8.73
2019-03-13T09:18:53.779Z,8.65
2019-03-13T09:20:14.984Z,4.25
2019-03-13T09:21:37.052Z,7.33
2019-03-13T09:23:02.903Z,10.53
2019-03-13T09:24:24.325Z,4.33
2019-03-13T09:25:37.284Z,7.03
2019-03-13T09:26:58.739Z,7.15
2019-03-13T09:28:27.891Z,5.55
2019-03-13T09:29:50.905Z,4.87
2019-03-13T09:31:12.376Z,3.85
2019-03-13T09:32:26.789Z,9.38
2019-03-13T09:33:42.172Z,9.80
2019-03-13T09:35:05.215Z,10.70
2019-03-13T09:36:29.147Z,11.22
2019-03-13T09:37:40.847Z,8.20
2019-03-13T09:38:52.433Z,4.75
2019-03-13T09:40:30.330Z,6.90
2019-03-13T09:41:56.347Z,9.50
2019-03-13T09:43:09.289Z,4.58
2019-03-13T09:44:35.348Z,4.87
2019-03-13T09:46:16.208Z,3.75
2019-03-13T09:47:37.455Z,3.65
2019-03-13T09:48:58.832Z,6.35
2019-03-13T09:50:23.583Z,6.83
2019-03-13T09:51:52.158Z,5.20
2019-03-13T09:53:02.771Z,6.15
2019-03-13T09:54:24.211Z,6.05
2019-03-13T09:55:50.118Z,3.75
2019-03-13T09:57:22.304Z,2.83
2019-03-13T09:58:57.207Z,6.35
2019-03-13T10:00:20.231Z,4.75
2019-03-13T10:01:41.691Z,7.45
2019-03-13T10:03:01.811Z,7.90
2019-03-13T10:04:23.519Z,5.92
2019-03-13T10:05:38.891Z,5.42
2019-03-13T10:07:02.350Z,6.00
2019-03-13T10:08:28.189Z,7.95
2019-03-13T10:09:49.991Z,10.93
2019-03-13T10:11:15.807Z,7.58
2019-03-13T10:12:28.272Z,5.10
2019-03-13T10:13:51.335Z,3.62
2019-03-13T10:15:09.866Z,3.90
2019-03-13T10:16:39.092Z,4.60
2019-03-13T10:18:11.249Z,7.22
2019-03-13T10:19:33.031Z,9.33
2019-03-13T10:21:14.291Z,9.43
2019-03-13T10:22:24.630Z,7.03
2019-03-13T10:23:40.112Z,7.30
2019-03-13T10:25:06.027Z,5.28
2019-03-13T10:26:25.188Z,6.30
2019-03-13T10:27:51.359Z,5.03
2019-03-13T10:29:20.470Z,5.90
2019-03-13T10:30:42.264Z,5.85
2019-03-13T10:32:08.098Z,9.20
2019-03-13T10:33:20.748Z,7.15
2019-03-13T10:34:46.816Z,10.90
2019-03-13T10:36:08.509Z,9.23
2019-03-13T10:37:23.203Z,4.00
2019-03-13T10:38:44.987Z,8.13
2019-03-13T10:40:22.919Z,8.10
2019-03-13T10:41:35.583Z,6.17
2019-03-13T10:42:57.171Z,11.93
2019-03-13T10:44:12.673Z,10.78
2019-03-13T10:45:38.737Z,18.62
2019-03-13T10:46:58.438Z,9.08
2019-03-13T10:48:13.639Z,5.45
2019-03-13T10:49:23.864Z,7.95
2019-03-13T10:50:45.319Z,4.05
2019-03-13T10:52:17.388Z,3.98
2019-03-13T10:53:52.179Z,2.90
2019-03-13T10:55:17.484Z,4.22
2019-03-13T10:56:52.748Z,5.62
2019-03-13T10:58:10.346Z,4.17
2019-03-13T10:59:24.045Z,5.95
2019-03-13T11:00:42.174Z,5.37
2019-03-13T11:01:53.455Z,3.80
2019-03-13T11:03:25.554Z,7.33
2019-03-13T11:04:51.067Z,3.92
2019-03-13T11:06:12.743Z,2.90
2019-03-13T11:07:35.783Z,6.30
2019-03-13T11:09:01.827Z,5.80
2019-03-13T11:10:34.217Z,10.55
2019-03-13T11:11:42.945Z,2.55
2019-03-13T11:13:04.431Z,7.50
2019-03-13T11:14:30.461Z,5.78
2019-03-13T11:15:42.470Z,3.22
2019-03-13T11:16:52.543Z,5.40
2019-03-13T11:18:18.730Z,3.40
2019-03-13T11:19:47.775Z,5.78
2019-03-13T11:21:00.847Z,3.80
2019-03-13T11:22:11.696Z,2.95
2019-03-13T11:23:46.806Z,2.33
2019-03-13T11:25:28.054Z,4.92
2019-03-13T11:26:51.114Z,5.42
2019-03-13T11:28:23.129Z,5.67
2019-03-13T11:29:55.037Z,3.55
2019-03-13T11:31:25.193Z,4.92
2019-03-13T11:32:48.354Z,4.08
2019-03-13T11:34:09.864Z,1.40
2019-03-13T11:35:48.019Z,3.98
2019-03-13T11:37:14.992Z,1.37
2019-03-13T11:38:41.094Z,1.75
2019-03-13T11:40:02.546Z,3.37
2019-03-13T11:41:30.613Z,2.33
2019-03-13T11:42:46.607Z,3.25
2019-03-13T11:44:08.233Z,7.87
2019-03-13T11:45:26.026Z,23.95
2019-03-13T11:46:49.106Z,3.50
2019-03-13T11:48:13.965Z,3.10
2019-03-13T11:49:37.089Z,3.02
2019-03-13T11:51:12.323Z,3.10
2019-03-13T11:52:40.965Z,3.90
2019-03-13T11:54:02.637Z,2.02
2019-03-13T11:55:31.845Z,2.80
2019-03-13T11:56:51.224Z,2.77
2019-03-13T11:58:07.071Z,3.92
2019-03-13T11:59:28.556Z,4.87
2019-03-13T12:00:57.619Z,3.52
2019-03-13T12:02:23.701Z,2.80
2019-03-13T12:04:04.732Z,4.42
2019-03-13T12:05:31.823Z,3.10
2019-03-13T12:07:09.764Z,2.83
2019-03-13T12:08:24.056Z,1.00
2019-03-13T12:09:45.588Z,2.67
2019-03-13T12:11:11.429Z,4.85
2019-03-13T12:12:28.423Z,3.22
2019-03-13T12:13:42.464Z,1.37
2019-03-13T12:15:08.168Z,2.22
2019-03-13T12:16:28.384Z,1.37
2019-03-13T12:18:03.530Z,2.20
2019-03-13T12:19:32.712Z,3.55
2019-03-13T12:20:55.759Z,1.85
2019-03-13T12:22:14.578Z,3.98
2019-03-13T12:23:52.838Z,3.25
2019-03-13T12:25:10.238Z,3.75
2019-03-13T12:26:36.353Z,2.42
2019-03-13T12:28:08.290Z,2.10
2019-03-13T12:29:37.392Z,3.55
2019-03-13T12:30:59.056Z,2.75
2019-03-13T12:32:22.087Z,3.10
2019-03-13T12:33:45.161Z,2.70
2019-03-13T12:34:55.067Z,4.95
2019-03-13T12:36:27.155Z,1.50
2019-03-13T12:37:48.895Z,3.50
2019-03-13T12:39:07.149Z,2.40
2019-03-13T12:40:26.671Z,3.77
2019-03-13T12:41:48.404Z,1.27
2019-03-13T12:43:26.618Z,2.25
2019-03-13T12:45:01.707Z,4.90
2019-03-13T12:46:17.218Z,1.98
2019-03-13T12:47:43.151Z,1.55
2019-03-13T12:49:18.443Z,3.92
2019-03-13T12:50:40.331Z,3.10
2019-03-13T12:52:08.779Z,3.27
2019-03-13T12:53:31.818Z,1.62
2019-03-13T12:55:06.767Z,1.77
2019-03-13T12:56:35.740Z,3.00
2019-03-13T12:57:57.428Z,4.75
2019-03-13T12:59:19.018Z,3.22
2019-03-13T13:00:42.671Z,2.85
2019-03-13T13:02:20.918Z,2.12
2019-03-13T13:03:35.755Z,2.37
2019-03-13T13:04:54.394Z,1.40
2019-03-13T13:06:26.434Z,4.05
2019-03-13T13:07:41.212Z,4.72
2019-03-13T13:09:04.715Z,1.72
2019-03-13T13:10:27.772Z,1.22
2019-03-13T13:11:46.663Z,1.87
2019-03-13T13:13:27.671Z,3.52
2019-03-13T13:14:59.928Z,4.50
2019-03-13T13:16:25.767Z,1.55
2019-03-13T13:17:51.721Z,1.25
2019-03-13T13:18:56.780Z,2.27
2019-03-13T13:20:00.941Z,2.20
2019-03-13T13:21:05.851Z,3.25
2019-03-13T13:22:09.959Z,3.22
2019-03-13T13:23:14.065Z,1.15
2019-03-13T13:24:18.436Z,4.35
2019-03-13T13:25:22.506Z,2.85
2019-03-13T13:26:26.624Z,4.00
2019-03-13T13:27:30.801Z,3.85
2019-03-13T13:28:34.935Z,2.85
2019-03-13T13:29:39.083Z,3.35
2019-03-13T13:30:43.187Z,1.07
2019-03-13T13:31:49.053Z,1.47
2019-03-13T13:32:53.195Z,2.55
2019-03-13T13:33:58.287Z,2.58
2019-03-13T13:35:02.415Z,5.35
2019-03-13T13:36:06.709Z,1.47
2019-03-13T13:37:10.921Z,3.08
2019-03-13T13:38:16.104Z,1.10
2019-03-13T13:39:20.215Z,2.10
2019-03-13T13:40:25.229Z,2.27
2019-03-13T13:41:29.452Z,1.45
2019-03-13T13:42:33.633Z,4.53
2019-03-13T13:43:38.433Z,3.17
2019-03-13T13:44:42.655Z,2.35
2019-03-13T13:45:58.598Z,2.50
2019-03-13T13:47:03.023Z,3.08
2019-03-13T13:48:07.116Z,1.22
2019-03-13T13:49:11.242Z,1.85
2019-03-13T13:50:15.633Z,1.40
2019-03-13T13:51:20.502Z,1.92
2019-03-13T13:52:24.627Z,2.52
2019-03-13T13:53:29.651Z,2.58
2019-03-13T13:54:33.750Z,1.40
2019-03-13T13:55:37.859Z,3.58
2019-03-13T13:56:41.966Z,1.85
2019-03-13T13:57:46.083Z,2.25
2019-03-13T13:58:50.195Z,2.62
2019-03-13T13:59:54.380Z,2.98
2019-03-13T14:00:58.503Z,1.55
2019-03-13T14:02:02.679Z,2.37
2019-03-13T14:03:06.820Z,2.47
2019-03-13T14:04:10.938Z,3.58
2019-03-13T14:05:15.010Z,4.15
2019-03-13T14:06:19.095Z,5.95
2019-03-13T14:07:23.239Z,1.57
2019-03-13T14:08:27.347Z,2.58
2019-03-13T14:09:31.582Z,3.30
2019-03-13T14:10:35.714Z,3.65
2019-03-13T14:11:39.816Z,1.62
2019-03-13T14:12:43.895Z,2.62
2019-03-13T14:13:47.992Z,1.98
2019-03-13T14:14:52.094Z,3.95
2019-03-13T14:15:56.159Z,4.80
2019-03-13T14:17:00.326Z,3.40
2019-03-13T14:18:04.441Z,2.67
2019-03-13T14:19:08.548Z,3.92
2019-03-13T14:20:12.661Z,3.20
2019-03-13T14:21:16.743Z,3.15
2019-03-13T14:22:20.825Z,4.20
2019-03-13T14:23:24.977Z,6.25
2019-03-13T14:24:29.075Z,5.45
2019-03-13T14:25:33.138Z,10.38
2019-03-13T14:26:37.238Z,2.10
2019-03-13T14:27:41.387Z,2.33
2019-03-13T14:28:45.543Z,3.62
2019-03-13T14:29:49.613Z,4.12
2019-03-13T14:30:55.001Z,3.83
2019-03-13T14:31:59.150Z,2.62
2019-03-13T14:33:03.247Z,8.63
2019-03-13T14:34:07.335Z,4.33
2019-03-13T14:35:11.476Z,3.67
2019-03-13T14:36:15.603Z,7.40
2019-03-13T14:37:19.744Z,10.28
2019-03-13T14:38:23.840Z,5.62
2019-03-13T14:39:27.936Z,4.55
2019-03-13T14:40:32.026Z,3.65
2019-03-13T14:41:36.135Z,9.03
2019-03-13T14:42:40.211Z,10.05
2019-03-13T14:43:44.362Z,4.10
2019-03-13T14:44:48.615Z,8.73
2019-03-13T14:45:52.891Z,4.47
2019-03-13T14:46:57.027Z,7.10
2019-03-13T14:48:01.098Z,5.15
2019-03-13T14:49:11.391Z,5.33
2019-03-13T14:50:21.407Z,3.50
2019-03-13T14:51:33.591Z,7.03
2019-03-13T14:52:44.108Z,8.05
2019-03-13T14:53:56.080Z,8.33
2019-03-13T14:55:12.503Z,7.22
2019-03-13T14:56:19.348Z,6.37
2019-03-13T14:57:23.426Z,8.20
2019-03-13T14:58:27.547Z,6.08
2019-03-13T14:59:31.933Z,6.20
2019-03-13T15:00:36.071Z,4.40
2019-03-13T15:01:40.171Z,8.28
2019-03-13T15:02:45.413Z,6.60
2019-03-13T15:03:49.567Z,8.75
2019-03-13T15:04:53.722Z,6.12
2019-03-13T15:05:57.847Z,6.35
2019-03-13T15:07:02.043Z,5.37
2019-03-13T15:08:06.153Z,4.62
2019-03-13T15:09:10.343Z,4.97
2019-03-13T15:10:14.465Z,8.08
2019-03-13T15:11:18.527Z,5.25
2019-03-13T15:12:22.638Z,10.98
2019-03-13T15:13:26.719Z,17.92
2019-03-13T15:14:30.826Z,8.25
2019-03-13T15:15:34.956Z,0.10
2019-03-13T15:16:39.064Z,0.55
2019-03-13T15:17:43.171Z,0.20
2019-03-13T15:18:47.293Z,0.10
2019-03-13T15:19:51.363Z,0.10
2019-03-13T15:20:55.441Z,0.20
2019-03-13T15:21:59.609Z,0.10
2019-03-13T15:23:03.791Z,0.20
2019-03-13T15:24:07.887Z,0.20
2019-03-13T15:25:12.285Z,3.75
2019-03-13T15:26:16.399Z,0.15
2019-03-13T15:27:20.508Z,0.10
2019-03-13T15:28:24.583Z,0.20
2019-03-13T15:29:28.755Z,0.20
2019-03-13T15:30:32.877Z,0.10
2019-03-13T15:31:36.962Z,0.10
2019-03-13T15:32:41.059Z,0.20
2019-03-13T15:33:51.456Z,0.20
2019-03-13T15:34:55.924Z,0.20
2019-03-13T15:36:02.575Z,0.10
2019-03-13T15:37:07.964Z,0.10
2019-03-13T15:38:15.396Z,0.10
2019-03-13T15:39:28.531Z,0.20
2019-03-13T15:40:34.296Z,0.10
2019-03-13T15:41:42.931Z,0.10
2019-03-13T15:42:59.216Z,0.10
2019-03-13T15:44:08.746Z,0.10
2019-03-13T15:45:14.933Z,0.10
2019-03-13T15:46:19.104Z,5.58
2019-03-13T15:47:23.196Z,0.10
2019-03-13T15:48:27.344Z,0.10
2019-03-13T15:49:31.512Z,0.20
2019-03-13T15:50:35.592Z,0.10
2019-03-13T15:51:39.689Z,0.20
2019-03-13T15:52:44.034Z,0.10
2019-03-13T15:53:48.123Z,0.10
2019-03-13T15:54:52.264Z,0.10
2019-03-13T15:55:56.366Z,0.10
2019-03-13T15:57:00.601Z,0.15
2019-03-13T15:58:04.740Z,0.30
2019-03-13T15:59:08.811Z,0.10
2019-03-13T16:00:18.205Z,0.10
2019-03-13T16:01:22.284Z,0.20
2019-03-13T16:02:26.377Z,0.10
2019-03-13T16:03:30.484Z,0.20
2019-03-13T16:04:34.733Z,0.10
2019-03-13T16:05:38.863Z,0.10
2019-03-13T16:06:42.937Z,0.10
2019-03-13T16:07:47.096Z,0.10
2019-03-13T16:08:51.166Z,0.10
2019-03-13T16:09:55.295Z,0.10
2019-03-13T16:10:59.396Z,0.10
2019-03-13T16:12:03.478Z,0.10
2019-03-13T16:13:07.627Z,0.30
2019-03-13T16:14:11.733Z,0.10
2019-03-13T16:15:17.744Z,0.20
2019-03-13T16:16:21.819Z,0.30
2019-03-13T16:17:25.915Z,0.10
2019-03-13T16:18:32.712Z,0.10
2019-03-13T16:19:36.843Z,0.17
2019-03-13T16:20:40.927Z,0.10
2019-03-13T16:21:45.002Z,0.10
2019-03-13T16:22:53.575Z,0.10
2019-03-13T16:23:57.703Z,0.20
2019-03-13T16:25:01.811Z,0.10
2019-03-13T16:26:05.892Z,0.10
2019-03-13T16:27:10.239Z,0.10
2019-03-13T16:28:14.315Z,0.10
2019-03-13T16:29:18.405Z,0.10
2019-03-13T16:30:23.279Z,0.20
2019-03-13T16:31:27.412Z,0.20
2019-03-13T16:32:43.345Z,0.10
2019-03-13T16:33:37.291Z,0.20
2019-03-13T16:34:41.403Z,0.20
2019-03-13T16:35:45.581Z,0.20
2019-03-13T16:36:49.672Z,0.10
2019-03-13T16:37:53.787Z,0.10
2019-03-13T16:38:57.901Z,0.10
2019-03-13T16:40:02.125Z,0.10
2019-03-13T16:41:06.229Z,0.10
2019-03-13T16:42:10.556Z,0.20
2019-03-13T16:43:14.648Z,0.17
2019-03-13T16:44:18.746Z,0.20
2019-03-13T16:45:22.845Z,0.20
2019-03-13T16:46:26.994Z,0.10
2019-03-13T16:47:31.068Z,0.10
2019-03-13T16:48:35.459Z,0.20
2019-03-13T16:49:39.584Z,0.10
2019-03-13T16:50:43.670Z,0.10
2019-03-13T16:51:47.711Z,0.10
2019-03-13T16:52:51.799Z,0.20
2019-03-13T16:53:55.891Z,0.20
2019-03-13T16:54:59.973Z,0.20
2019-03-13T16:56:05.771Z,0.10
2019-03-13T16:57:09.880Z,0.20
2019-03-13T16:58:13.951Z,0.10
2019-03-13T16:59:18.026Z,0.10
2019-03-13T17:00:23.304Z,0.20
2019-03-13T17:01:27.402Z,0.10
2019-03-13T17:02:31.492Z,0.10
2019-03-13T17:03:35.581Z,0.15
2019-03-13T17:04:42.751Z,2.47
2019-03-13T17:05:46.891Z,0.10
2019-03-13T17:06:51.004Z,0.20
2019-03-13T17:07:55.094Z,0.20
2019-03-13T17:08:59.274Z,0.20
2019-03-13T17:10:05.385Z,0.20
2019-03-13T17:11:09.301Z,0.13
2019-03-13T17:12:13.446Z,0.10
2019-03-13T17:13:17.527Z,0.10
2019-03-13T17:14:21.696Z,0.20
2019-03-13T17:15:25.911Z,0.10
2019-03-13T17:16:30.000Z,0.10
2019-03-13T17:17:34.115Z,0.10
2019-03-13T17:18:38.200Z,0.20